EDT,Max TemperatureF,Mean TemperatureF,Min TemperatureF,Max Dew PointF,MeanDew PointF,Min DewpointF,Max Humidity, Mean Humidity, Min Humidity, Max Sea Level PressureIn, Mean Sea Level PressureIn, Min Sea Level PressureIn, Max VisibilityMiles, Mean VisibilityMiles, Min VisibilityMiles, Max Wind SpeedMPH, Mean Wind SpeedMPH, Max Gust SpeedMPH,PrecipitationIn, CloudCover, Events, WindDirDegrees
2013-3-1,28,26,25,24,20,18,82,76,71,30.12,30.06,29.98,10,10,10,15,11,21,0.00,8,,12
2013-3-2,26,24,23,19,18,16,81,74,69,30.10,30.09,30.07,10,9,5,10,8,,0.00,8,Snow,341
2013-3-3,28,20,12,16,13,9,92,70,49,30.08,30.06,30.01,10,10,8,13,7,21,0.00,4,Snow,315
2013-3-4,33,22,10,18,14,7,88,69,50,30.17,30.13,30.09,10,10,10,8,3,,0.00,0,,296
2013-3-5,34,26,19,25,21,16,92,76,61,30.14,29.98,29.84,10,10,5,15,8,24,0.00,4,,79
2013-3-6,39,32,26,28,26,21,82,73,61,30.22,30.06,29.84,10,10,10,14,9,22,0.00,5,,10
2013-3-7,36,32,23,29,25,18,89,74,59,30.41,30.32,30.22,10,9,7,12,5,,0.00,7,,340
2013-3-8,43,31,19,27,22,17,96,72,49,30.51,30.46,30.42,10,10,10,7,2,,0.00,0,,342
2013-3-9,42,32,21,31,27,20,92,77,62,30.42,30.27,30.06,10,10,6,12,3,18,0.00,2,,135
2013-3-10,61,48,35,44,38,30,85,62,51,30.04,29.92,29.81,10,10,10,17,6,25,0.01,3,Rain,188
2013-3-11,54,46,37,48,44,31,100,84,64,29.81,29.63,29.48,10,8,2,24,12,33,0.28,8,Rain,210
2013-3-12,37,32,28,31,28,24,93,80,67,29.94,29.84,29.71,10,9,2,17,12,23,0.01,8,Snow,248
2013-3-13,32,28,24,27,21,12,93,76,53,30.21,29.97,29.85,10,6,1,24,11,31,0.00,7,Snow,282
2013-3-14,42,30,19,21,17,11,85,60,38,30.28,30.21,30.10,10,10,10,13,8,20,0.00,0,,277
2013-3-15,41,34,30,34,30,20,100,81,59,30.09,29.92,29.84,10,6,1,15,8,84,0.06,7,Rain-Snow,296
2013-3-16,34,31,28,32,26,20,100,87,66,30.06,29.84,29.74,10,5,1,18,8,71,0.09,8,Snow,39
2013-3-17,34,26,21,23,17,12,80,67,51,30.28,30.18,30.04,10,10,10,15,8,18,0.00,3,,31
2013-3-18,35,29,23,36,28,15,100,87,69,30.18,29.74,29.54,10,5,1,20,11,28,0.04,7,Rain-Snow,107
2013-3-19,35,29,23,30,17,12,87,68,58,29.96,29.78,29.61,10,8,2,25,17,38,0.00,8,Snow,256
2013-3-20,30,24,17,16,13,8,71,63,47,29.97,29.93,29.89,10,8,2,18,13,26,0.00,6,Snow,283
2013-3-21,33,24,15,21,17,9,84,73,56,29.96,29.90,29.85,10,8,2,17,11,24,0.00,7,Snow,288
2013-3-22,41,32,26,21,18,15,75,60,43,30.04,29.99,29.93,10,10,8,14,10,24,0.00,5,Snow,303
2013-3-23,39,29,21,23,20,16,89,68,52,30.12,30.08,30.03,10,10,9,8,4,,0.00,3,,342
2013-3-24,37,28,21,23,21,17,85,69,46,30.04,29.87,29.64,10,10,8,20,7,29,0.00,4,,57
2013-3-25,41,34,30,27,24,21,80,65,51,29.92,29.67,29.55,10,9,5,18,14,25,0.00,8,Snow,26
2013-3-26,46,38,33,29,26,22,78,65,49,30.13,30.04,29.93,10,10,9,16,10,21,0.00,8,Snow,317
2013-3-27,48,38,30,29,24,22,82,60,40,30.22,30.17,30.13,10,10,10,18,12,25,0.00,4,,298
2013-3-28,54,42,30,26,23,21,75,52,31,30.28,30.25,30.22,10,10,10,15,9,21,0.00,4,,306
2013-3-29,54,40,27,23,20,17,75,50,25,30.30,30.26,30.21,10,10,10,10,5,16,0.00,1,,307
2013-3-30,55,38,21,29,22,16,92,53,22,30.23,30.12,29.94,10,10,10,14,3,21,0.00,0,,217
2013-3-31,60,44,30,43,34,27,89,69,32,29.92,29.72,29.63,10,7,2,20,6,28,0.05,6,Rain,259